createdAt,value
2019-05-17T00:00:37.493Z,15.90
2019-05-17T00:00:47.453Z,17.90
2019-05-17T00:01:46.921Z,16.30
2019-05-17T00:02:46.572Z,16.40
2019-05-17T00:03:06.923Z,15.57
2019-05-17T00:03:47.086Z,15.40
2019-05-17T00:04:46.985Z,14.50
2019-05-17T00:05:37.513Z,13.83
2019-05-17T00:05:46.605Z,13.50
2019-05-17T00:06:47.682Z,14.30
2019-05-17T00:07:47.551Z,16.40
2019-05-17T00:08:07.641Z,14.10
2019-05-17T00:08:47.257Z,15.50
2019-05-17T00:09:47.710Z,15.70
2019-05-17T00:10:37.497Z,14.27
2019-05-17T00:10:46.517Z,16.00
2019-05-17T00:11:47.306Z,17.00
2019-05-17T00:12:47.130Z,17.70
2019-05-17T00:13:07.186Z,14.43
2019-05-17T00:13:46.600Z,16.30
2019-05-17T00:14:47.277Z,16.50
2019-05-17T00:15:37.310Z,14.17
2019-05-17T00:15:47.402Z,18.60
2019-05-17T00:16:46.928Z,16.20
2019-05-17T00:17:46.861Z,16.30
2019-05-17T00:18:06.649Z,15.03
2019-05-17T00:18:46.356Z,15.70
2019-05-17T00:19:46.458Z,16.40
2019-05-17T00:20:37.401Z,14.83
2019-05-17T00:20:46.540Z,17.10
2019-05-17T00:21:47.562Z,15.20
2019-05-17T00:22:47.196Z,14.90
2019-05-17T00:23:07.160Z,14.87
2019-05-17T00:23:47.006Z,14.60
2019-05-17T00:24:47.727Z,15.60
2019-05-17T00:25:36.843Z,13.90
2019-05-17T00:25:46.993Z,15.30
2019-05-17T00:26:46.701Z,17.00
2019-05-17T00:27:47.357Z,17.20
2019-05-17T00:28:07.393Z,14.97
2019-05-17T00:28:46.933Z,16.10
2019-05-17T00:29:46.509Z,17.60
2019-05-17T00:30:37.318Z,13.20
2019-05-17T00:30:46.572Z,14.30
2019-05-17T00:31:46.221Z,15.70
2019-05-17T00:32:47.612Z,15.20
2019-05-17T00:33:07.937Z,15.27
2019-05-17T00:33:47.101Z,16.50
2019-05-17T00:34:46.999Z,16.10
2019-05-17T00:35:37.581Z,14.97
2019-05-17T00:35:46.902Z,15.70
2019-05-17T00:36:46.961Z,16.30
2019-05-17T00:37:46.574Z,15.50
2019-05-17T00:38:06.830Z,14.63
2019-05-17T00:38:51.238Z,15.70
2019-05-17T00:39:47.163Z,15.40
2019-05-17T00:40:36.523Z,14.80
2019-05-17T00:40:47.046Z,16.90
2019-05-17T00:41:46.989Z,15.30
2019-05-17T00:42:46.762Z,16.70
2019-05-17T00:43:06.782Z,14.90
2019-05-17T00:43:46.308Z,16.20
2019-05-17T00:44:47.359Z,16.90
2019-05-17T00:45:37.751Z,14.70
2019-05-17T00:45:46.855Z,16.30
2019-05-17T00:46:46.741Z,16.40
2019-05-17T00:47:46.833Z,16.20
2019-05-17T00:48:06.688Z,13.40
2019-05-17T00:48:46.659Z,15.60
2019-05-17T00:49:46.535Z,14.50
2019-05-17T00:50:37.974Z,12.37
2019-05-17T00:50:52.312Z,15.20
2019-05-17T00:51:47.480Z,14.30
2019-05-17T00:52:47.546Z,15.20
2019-05-17T00:53:07.281Z,13.67
2019-05-17T00:53:46.803Z,16.20
2019-05-17T00:54:46.882Z,13.90
2019-05-17T00:55:36.589Z,14.37
2019-05-17T00:55:46.748Z,15.30
2019-05-17T00:56:46.501Z,15.30
2019-05-17T00:57:47.480Z,15.30
2019-05-17T00:58:06.822Z,13.43
2019-05-17T00:58:47.743Z,16.20
2019-05-17T00:59:47.605Z,17.30
2019-05-17T01:00:37.554Z,13.73
2019-05-17T01:00:47.846Z,13.60
2019-05-17T01:01:46.967Z,14.30
2019-05-17T01:02:46.986Z,15.30
2019-05-17T01:03:07.029Z,12.60
2019-05-17T01:03:47.694Z,13.60
2019-05-17T01:04:47.603Z,15.80
2019-05-17T01:05:36.897Z,12.47
2019-05-17T01:05:47.318Z,15.80
2019-05-17T01:06:47.012Z,15.70
2019-05-17T01:07:47.256Z,15.00
2019-05-17T01:08:07.332Z,12.63
2019-05-17T01:08:59.384Z,15.40
2019-05-17T01:09:47.257Z,15.90
2019-05-17T01:10:37.008Z,12.97
2019-05-17T01:10:47.409Z,16.80
2019-05-17T01:11:47.366Z,15.30
2019-05-17T01:12:48.189Z,14.50
2019-05-17T01:13:06.894Z,12.17
2019-05-17T01:13:46.810Z,16.20
2019-05-17T01:14:46.809Z,15.50
2019-05-17T01:15:37.023Z,12.47
2019-05-17T01:15:47.433Z,14.00
2019-05-17T01:16:47.459Z,15.40
2019-05-17T01:17:47.472Z,15.20
2019-05-17T01:18:07.195Z,12.17
2019-05-17T01:18:47.080Z,16.80
2019-05-17T01:19:47.326Z,18.00
2019-05-17T01:20:36.880Z,12.77
2019-05-17T01:20:47.456Z,15.40
2019-05-17T01:21:47.450Z,16.90
2019-05-17T01:22:47.501Z,16.10
2019-05-17T01:23:07.752Z,11.90
2019-05-17T01:23:46.931Z,17.50
2019-05-17T01:24:46.945Z,13.60
2019-05-17T01:25:36.853Z,12.60
2019-05-17T01:25:48.152Z,11.10
2019-05-17T01:26:47.089Z,13.90
2019-05-17T01:27:47.414Z,13.10
2019-05-17T01:28:07.684Z,12.33
2019-05-17T01:28:47.008Z,13.40
2019-05-17T01:29:47.025Z,13.80
2019-05-17T01:30:37.523Z,12.73
2019-05-17T01:30:47.044Z,14.40
2019-05-17T01:31:47.060Z,13.50
2019-05-17T01:32:47.083Z,14.50
2019-05-17T01:33:06.868Z,13.20
2019-05-17T01:33:47.321Z,13.10
2019-05-17T01:34:47.175Z,13.30
2019-05-17T01:35:37.390Z,10.93
2019-05-17T01:35:47.133Z,16.10
2019-05-17T01:36:47.138Z,12.90
2019-05-17T01:37:47.595Z,10.30
2019-05-17T01:38:07.300Z,10.90
2019-05-17T01:38:47.182Z,10.50
2019-05-17T01:39:47.188Z,11.10
2019-05-17T01:40:37.273Z,10.00
2019-05-17T01:40:47.206Z,12.70
2019-05-17T01:41:47.223Z,10.80
2019-05-17T01:42:47.236Z,8.80
2019-05-17T01:43:07.919Z,9.60
2019-05-17T01:43:47.540Z,9.40
2019-05-17T01:44:47.383Z,10.80
2019-05-17T01:45:36.993Z,10.27
2019-05-17T01:45:48.055Z,11.60
2019-05-17T01:46:47.305Z,12.40
2019-05-17T01:47:47.652Z,11.70
2019-05-17T01:48:07.409Z,9.90
2019-05-17T01:48:47.340Z,12.30
2019-05-17T01:49:47.357Z,10.90
2019-05-17T01:50:37.423Z,7.90
2019-05-17T01:50:47.368Z,13.30
2019-05-17T01:51:47.384Z,9.50
2019-05-17T01:52:47.402Z,11.10
2019-05-17T01:53:07.502Z,7.67
2019-05-17T01:53:47.415Z,9.30
2019-05-17T01:54:47.432Z,9.30
2019-05-17T01:55:37.444Z,9.73
2019-05-17T01:55:47.448Z,11.30
2019-05-17T01:56:47.461Z,9.90
2019-05-17T01:57:47.773Z,9.60
2019-05-17T01:58:07.337Z,8.37
2019-05-17T01:58:47.496Z,9.90
2019-05-17T01:59:47.519Z,10.90
2019-05-17T02:00:37.713Z,7.77
2019-05-17T02:00:47.534Z,8.30
2019-05-17T02:01:47.551Z,9.80
2019-05-17T02:02:47.564Z,9.80
2019-05-17T02:03:07.237Z,7.93
2019-05-17T02:03:47.582Z,9.40
2019-05-17T02:04:47.597Z,10.10
2019-05-17T02:05:37.281Z,8.60
2019-05-17T02:05:47.623Z,11.00
2019-05-17T02:06:47.628Z,9.70
2019-05-17T02:07:47.647Z,9.60
2019-05-17T02:08:06.725Z,8.67
2019-05-17T02:08:47.687Z,10.70
2019-05-17T02:09:47.829Z,10.80
2019-05-17T02:10:37.545Z,8.63
2019-05-17T02:10:47.690Z,11.10
2019-05-17T02:11:47.713Z,9.60
2019-05-17T02:12:48.985Z,9.40
2019-05-17T02:13:06.849Z,8.63
2019-05-17T02:13:47.739Z,11.10
2019-05-17T02:14:47.755Z,11.00
2019-05-17T02:15:37.931Z,9.33
2019-05-17T02:15:47.773Z,9.60
2019-05-17T02:16:47.868Z,10.00
2019-05-17T02:17:47.828Z,9.80
2019-05-17T02:18:07.127Z,9.40
2019-05-17T02:18:47.823Z,10.40
2019-05-17T02:19:47.839Z,11.30
2019-05-17T02:20:37.264Z,8.37
2019-05-17T02:20:47.852Z,15.10
2019-05-17T02:21:48.049Z,9.10
2019-05-17T02:22:47.887Z,9.60
2019-05-17T02:23:07.409Z,8.60
2019-05-17T02:23:47.931Z,9.60
2019-05-17T02:24:47.920Z,10.60
2019-05-17T02:25:36.896Z,9.40
2019-05-17T02:25:47.935Z,9.20
2019-05-17T02:26:47.951Z,11.90
2019-05-17T02:27:48.008Z,12.50
2019-05-17T02:28:06.040Z,9.13
2019-05-17T02:28:47.983Z,10.90
2019-05-17T02:29:48.010Z,12.00
2019-05-17T02:30:35.053Z,9.20
2019-05-17T02:30:48.017Z,11.20
2019-05-17T02:31:48.038Z,10.90
2019-05-17T02:32:48.050Z,11.00
2019-05-17T02:33:04.383Z,9.97
2019-05-17T02:33:48.066Z,11.60
2019-05-17T02:34:48.093Z,11.90
2019-05-17T02:35:33.959Z,15.83
2019-05-17T02:35:48.101Z,11.90
2019-05-17T02:36:48.115Z,12.40
2019-05-17T02:37:48.135Z,13.20
2019-05-17T02:38:03.427Z,9.47
2019-05-17T02:38:48.149Z,10.40
2019-05-17T02:39:58.113Z,11.40
2019-05-17T02:40:33.992Z,9.50
2019-05-17T02:40:48.182Z,11.90
2019-05-17T02:41:48.196Z,11.40
2019-05-17T02:42:48.227Z,10.00
2019-05-17T02:43:03.422Z,9.40
2019-05-17T02:43:48.230Z,10.10
2019-05-17T02:44:48.245Z,10.90
2019-05-17T02:45:33.194Z,9.67
2019-05-17T02:45:48.263Z,10.30
2019-05-17T02:46:48.284Z,12.90
2019-05-17T02:47:48.299Z,10.50
2019-05-17T02:48:03.818Z,9.47
2019-05-17T02:48:48.311Z,13.60
2019-05-17T02:49:48.331Z,12.30
2019-05-17T02:50:33.412Z,9.67
2019-05-17T02:50:48.425Z,11.50
2019-05-17T02:51:48.369Z,9.60
2019-05-17T02:52:48.376Z,10.20
2019-05-17T02:53:04.382Z,10.07
2019-05-17T02:53:48.396Z,12.80
2019-05-17T02:54:48.412Z,11.50
2019-05-17T02:55:32.974Z,10.77
2019-05-17T02:55:48.424Z,12.70
2019-05-17T02:56:48.450Z,12.40
2019-05-17T02:57:48.460Z,12.10
2019-05-17T02:58:03.050Z,11.30
2019-05-17T02:58:48.482Z,12.60
2019-05-17T02:59:48.494Z,13.30
2019-05-17T03:00:33.897Z,12.07
2019-05-17T03:00:48.509Z,14.30
2019-05-17T03:01:48.524Z,15.00
2019-05-17T03:02:48.548Z,16.40
2019-05-17T03:03:03.645Z,11.50
2019-05-17T03:03:48.558Z,16.50
2019-05-17T03:04:48.574Z,17.60
2019-05-17T03:05:33.936Z,13.50
2019-05-17T03:05:48.589Z,18.30
2019-05-17T03:06:48.634Z,18.40
2019-05-17T03:07:48.622Z,20.30
2019-05-17T03:08:04.175Z,14.80
2019-05-17T03:08:48.643Z,17.60
2019-05-17T03:09:48.654Z,19.40
2019-05-17T03:10:33.989Z,16.57
2019-05-17T03:10:48.678Z,17.00
2019-05-17T03:11:48.698Z,21.30
2019-05-17T03:12:48.720Z,20.40
2019-05-17T03:13:04.092Z,16.70
2019-05-17T03:13:48.719Z,21.60
2019-05-17T03:14:48.741Z,24.80
2019-05-17T03:15:33.361Z,17.03
2019-05-17T03:15:48.752Z,20.70
2019-05-17T03:16:48.767Z,22.40
2019-05-17T03:17:48.788Z,21.80
2019-05-17T03:18:03.645Z,17.57
2019-05-17T03:18:48.810Z,21.30
2019-05-17T03:19:48.820Z,25.70
2019-05-17T03:20:33.220Z,17.17
2019-05-17T03:20:48.841Z,24.30
2019-05-17T03:21:48.857Z,24.50
2019-05-17T03:22:48.872Z,27.30
2019-05-17T03:23:03.697Z,18.80
2019-05-17T03:23:48.894Z,26.40
2019-05-17T03:24:48.897Z,25.30
2019-05-17T03:25:33.640Z,17.77
2019-05-17T03:25:48.918Z,26.10
2019-05-17T03:26:52.375Z,24.70
2019-05-17T03:27:48.951Z,27.80
2019-05-17T03:28:03.167Z,19.13
2019-05-17T03:28:48.966Z,26.30
2019-05-17T03:29:48.983Z,25.00
2019-05-17T03:30:36.498Z,20.57
2019-05-17T03:30:49.019Z,27.90
2019-05-17T03:31:57.319Z,25.40
2019-05-17T03:32:49.383Z,51.00
2019-05-17T03:33:07.061Z,20.90
2019-05-17T03:33:55.121Z,31.00
2019-05-17T03:34:55.289Z,25.50
2019-05-17T03:35:37.681Z,20.07
2019-05-17T03:35:49.079Z,29.20
2019-05-17T03:36:49.098Z,26.10
2019-05-17T03:37:49.110Z,26.50
2019-05-17T03:38:04.844Z,21.63
2019-05-17T03:38:49.128Z,28.00
2019-05-17T03:39:49.145Z,25.60
2019-05-17T03:41:01.627Z,23.90
2019-05-17T03:41:17.689Z,28.20
2019-05-17T03:41:49.175Z,29.00
2019-05-17T03:42:49.200Z,26.60
2019-05-17T03:43:04.263Z,21.40
2019-05-17T03:43:49.219Z,28.30
2019-05-17T03:44:49.224Z,29.20
2019-05-17T03:45:34.212Z,18.80
2019-05-17T03:45:49.238Z,25.30
2019-05-17T03:46:49.259Z,26.50
2019-05-17T03:47:49.274Z,29.30
2019-05-17T03:48:04.853Z,20.13
2019-05-17T03:48:49.293Z,28.10
2019-05-17T03:49:49.375Z,28.20
2019-05-17T03:50:34.025Z,20.17
2019-05-17T03:50:49.319Z,29.30
2019-05-17T03:51:49.338Z,27.20
2019-05-17T03:52:49.351Z,24.80
2019-05-17T03:53:03.104Z,20.90
2019-05-17T03:53:49.372Z,27.40
2019-05-17T03:54:52.820Z,34.10
2019-05-17T03:55:33.232Z,22.83
2019-05-17T03:55:49.519Z,26.00
2019-05-17T03:56:49.421Z,26.90
2019-05-17T03:57:52.995Z,27.30
2019-05-17T03:58:03.616Z,23.53
2019-05-17T03:58:52.800Z,28.70
2019-05-17T03:59:52.273Z,26.90
2019-05-17T04:00:35.450Z,24.00
2019-05-17T04:00:49.488Z,30.00
2019-05-17T04:01:52.497Z,30.50
2019-05-17T04:02:49.512Z,25.50
2019-05-17T04:03:03.424Z,21.83
2019-05-17T04:03:49.539Z,29.50
2019-05-17T04:04:52.690Z,30.80
2019-05-17T04:05:33.363Z,19.23
2019-05-17T04:05:52.666Z,29.20
2019-05-17T04:06:52.409Z,25.50
2019-05-17T04:07:49.599Z,27.00
2019-05-17T04:08:03.921Z,23.03
2019-05-17T04:08:52.624Z,26.40
2019-05-17T04:09:52.969Z,27.60
2019-05-17T04:10:33.624Z,21.13
2019-05-17T04:10:52.703Z,26.40
2019-05-17T04:11:49.659Z,26.70
2019-05-17T04:12:52.725Z,25.20
2019-05-17T04:13:04.034Z,22.33
2019-05-17T04:13:49.686Z,24.40
2019-05-17T04:14:53.056Z,24.00
2019-05-17T04:15:33.534Z,17.13
2019-05-17T04:15:52.776Z,24.00
2019-05-17T04:16:49.736Z,24.00
2019-05-17T04:17:52.709Z,21.20
2019-05-17T04:18:04.321Z,19.77
2019-05-17T04:18:49.772Z,21.80
2019-05-17T04:19:52.983Z,24.60
2019-05-17T04:20:33.653Z,18.60
2019-05-17T04:20:52.706Z,22.70
2019-05-17T04:21:49.817Z,25.90
2019-05-17T04:22:52.555Z,24.20
2019-05-17T04:23:04.043Z,17.33
2019-05-17T04:23:49.849Z,21.60
2019-05-17T04:24:52.334Z,20.20
2019-05-17T04:25:33.648Z,15.17
2019-05-17T04:25:52.386Z,21.20
2019-05-17T04:26:52.420Z,20.30
2019-05-17T04:27:53.388Z,19.60
2019-05-17T04:28:03.258Z,16.17
2019-05-17T04:28:52.967Z,18.90
2019-05-17T04:29:53.025Z,20.10
2019-05-17T04:30:32.720Z,16.87
2019-05-17T04:30:52.637Z,23.20
2019-05-17T04:31:49.978Z,21.60
2019-05-17T04:32:52.676Z,19.50
2019-05-17T04:33:03.491Z,17.60
2019-05-17T04:33:53.338Z,21.80
2019-05-17T04:34:52.606Z,20.40
2019-05-17T04:35:32.865Z,14.93
2019-05-17T04:35:53.797Z,17.30
2019-05-17T04:36:52.227Z,19.40
2019-05-17T04:37:52.976Z,19.40
2019-05-17T04:38:04.124Z,14.27
2019-05-17T04:38:52.635Z,18.20
2019-05-17T04:39:52.517Z,20.40
2019-05-17T04:40:33.985Z,15.40
2019-05-17T04:40:53.452Z,17.50
2019-05-17T04:41:54.371Z,17.20
2019-05-17T04:42:52.656Z,17.30
2019-05-17T04:43:03.561Z,15.10
2019-05-17T04:43:52.902Z,16.50
2019-05-17T04:44:52.741Z,19.30
2019-05-17T04:45:33.544Z,13.73
2019-05-17T04:45:53.201Z,17.60
2019-05-17T04:46:53.357Z,16.40
2019-05-17T04:47:52.680Z,16.10
2019-05-17T04:48:04.069Z,11.77
2019-05-17T04:48:53.331Z,16.60
2019-05-17T04:49:53.292Z,17.70
2019-05-17T04:50:33.574Z,11.00
2019-05-17T04:50:53.318Z,16.70
2019-05-17T04:51:52.560Z,14.00
2019-05-17T04:52:53.454Z,15.10
2019-05-17T04:53:03.059Z,9.97
2019-05-17T04:53:52.975Z,14.20
2019-05-17T04:54:53.434Z,12.70
2019-05-17T04:55:34.346Z,10.93
2019-05-17T04:55:53.771Z,12.90
2019-05-17T04:56:53.085Z,15.90
2019-05-17T04:57:53.022Z,13.00
2019-05-17T04:58:03.831Z,10.97
2019-05-17T04:58:54.143Z,14.10
2019-05-17T04:59:52.348Z,13.60
2019-05-17T05:00:34.006Z,10.57
2019-05-17T05:00:53.316Z,14.30
2019-05-17T05:01:53.543Z,13.40
2019-05-17T05:02:52.709Z,13.30
2019-05-17T05:03:04.003Z,8.80
2019-05-17T05:03:52.478Z,12.40
2019-05-17T05:04:53.176Z,11.30
2019-05-17T05:05:33.436Z,8.83
2019-05-17T05:05:53.528Z,15.10
2019-05-17T05:06:52.478Z,12.70
2019-05-17T05:07:53.237Z,13.50
2019-05-17T05:08:03.217Z,9.70
2019-05-17T05:08:52.881Z,14.00
2019-05-17T05:09:52.314Z,13.60
2019-05-17T05:10:33.840Z,10.23
2019-05-17T05:10:53.556Z,17.30
2019-05-17T05:12:00.365Z,15.20
2019-05-17T05:12:52.441Z,16.70
2019-05-17T05:13:03.491Z,13.03
2019-05-17T05:13:53.114Z,16.40
2019-05-17T05:14:52.333Z,14.90
2019-05-17T05:15:43.938Z,10.93
2019-05-17T05:15:52.169Z,16.00
2019-05-17T05:16:52.904Z,17.80
2019-05-17T05:17:52.722Z,14.50
2019-05-17T05:18:13.323Z,11.63
2019-05-17T05:18:52.107Z,14.60
2019-05-17T05:19:53.035Z,14.30
2019-05-17T05:20:43.477Z,13.23
2019-05-17T05:20:52.629Z,15.10
2019-05-17T05:21:52.030Z,16.80
2019-05-17T05:22:52.708Z,15.30
2019-05-17T05:23:13.292Z,17.53
2019-05-17T05:23:51.799Z,16.80
2019-05-17T05:24:52.522Z,16.70
2019-05-17T05:25:43.271Z,14.60
2019-05-17T05:25:52.214Z,15.30
2019-05-17T05:26:51.824Z,15.80
2019-05-17T05:27:51.655Z,15.00
2019-05-17T05:28:12.332Z,11.90
2019-05-17T05:28:52.817Z,18.60
2019-05-17T05:29:52.132Z,16.50
2019-05-17T05:30:42.313Z,11.97
2019-05-17T05:30:52.676Z,17.50
2019-05-17T05:31:51.782Z,17.70
2019-05-17T05:32:52.503Z,17.50
2019-05-17T05:33:12.850Z,13.27
2019-05-17T05:33:52.229Z,17.60
2019-05-17T05:34:51.999Z,18.40
2019-05-17T05:35:42.650Z,12.97
2019-05-17T05:35:51.694Z,19.20
2019-05-17T05:36:52.496Z,20.50
2019-05-17T05:37:52.560Z,20.70
2019-05-17T05:38:12.952Z,13.93
2019-05-17T05:38:51.573Z,19.20
2019-05-17T05:39:53.951Z,17.20
2019-05-17T05:40:42.583Z,13.80
2019-05-17T05:40:52.163Z,19.60
2019-05-17T05:41:51.863Z,21.10
2019-05-17T05:42:51.595Z,20.30
2019-05-17T05:43:11.991Z,15.07
2019-05-17T05:43:52.579Z,19.30
2019-05-17T05:44:52.231Z,19.80
2019-05-17T05:45:41.689Z,14.27
2019-05-17T05:45:53.466Z,19.10
2019-05-17T05:46:51.523Z,19.40
2019-05-17T05:47:52.157Z,19.30
2019-05-17T05:48:12.934Z,13.33
2019-05-17T05:48:52.182Z,18.60
2019-05-17T05:49:52.054Z,17.10
2019-05-17T05:50:43.169Z,14.33
2019-05-17T05:50:52.115Z,18.40
2019-05-17T05:51:52.325Z,18.20
2019-05-17T05:52:52.432Z,20.70
2019-05-17T05:53:13.017Z,14.50
2019-05-17T05:53:52.218Z,18.20
2019-05-17T05:54:52.077Z,17.10
2019-05-17T05:55:42.814Z,14.63
2019-05-17T05:55:51.837Z,20.90
2019-05-17T05:56:52.438Z,18.70
2019-05-17T05:57:52.184Z,16.80
2019-05-17T05:58:12.385Z,13.67
2019-05-17T05:58:52.275Z,17.70
2019-05-17T05:59:51.799Z,17.30
2019-05-17T06:00:42.790Z,12.67
2019-05-17T06:00:53.109Z,18.40
2019-05-17T06:01:52.503Z,18.50
2019-05-17T06:02:52.336Z,16.80
2019-05-17T06:03:12.295Z,13.90
2019-05-17T06:03:52.016Z,17.70
2019-05-17T06:04:51.928Z,20.20
2019-05-17T06:05:42.362Z,13.20
2019-05-17T06:05:52.515Z,17.90
2019-05-17T06:06:52.196Z,17.10
2019-05-17T06:07:52.190Z,16.70
2019-05-17T06:08:12.250Z,13.30
2019-05-17T06:08:52.107Z,17.70
2019-05-17T06:09:51.870Z,18.60
2019-05-17T06:10:42.549Z,12.97
2019-05-17T06:10:53.166Z,19.40
2019-05-17T06:11:51.995Z,18.40
2019-05-17T06:12:51.808Z,17.20
2019-05-17T06:13:13.136Z,12.77
2019-05-17T06:13:52.447Z,18.20
2019-05-17T06:14:52.351Z,18.60
2019-05-17T06:15:42.863Z,14.17
2019-05-17T06:15:51.868Z,17.00
2019-05-17T06:16:52.145Z,18.80
2019-05-17T06:17:51.992Z,17.70
2019-05-17T06:18:12.438Z,15.37
2019-05-17T06:18:51.738Z,18.30
2019-05-17T06:19:51.840Z,19.30
2019-05-17T06:20:41.958Z,15.40
2019-05-17T06:20:52.412Z,18.60
2019-05-17T06:21:52.062Z,20.40
2019-05-17T06:22:51.861Z,19.20
2019-05-17T06:23:12.189Z,14.77
2019-05-17T06:23:51.770Z,19.80
2019-05-17T06:24:52.122Z,19.60
2019-05-17T06:25:43.508Z,14.90
2019-05-17T06:25:52.224Z,19.10
2019-05-17T06:26:52.542Z,21.50
2019-05-17T06:27:52.108Z,19.00
2019-05-17T06:28:11.960Z,15.27
2019-05-17T06:28:51.935Z,22.40
2019-05-17T06:29:51.871Z,21.20
2019-05-17T06:30:43.108Z,16.27
2019-05-17T06:30:52.208Z,21.10
2019-05-17T06:31:52.022Z,22.40
2019-05-17T06:32:51.919Z,20.40
2019-05-17T06:33:13.364Z,14.67
2019-05-17T06:33:52.452Z,21.80
2019-05-17T06:34:51.955Z,22.90
2019-05-17T06:35:42.582Z,15.13
2019-05-17T06:35:52.511Z,20.80
2019-05-17T06:36:52.809Z,20.90
2019-05-17T06:37:53.601Z,20.00
2019-05-17T06:38:11.998Z,16.30
2019-05-17T06:38:52.740Z,22.00
2019-05-17T06:39:52.621Z,20.80
2019-05-17T06:40:41.989Z,14.47
2019-05-17T06:40:52.454Z,21.80
2019-05-17T06:41:52.268Z,23.80
2019-05-17T06:42:52.540Z,20.50
2019-05-17T06:43:13.135Z,15.87
2019-05-17T06:43:52.445Z,24.70
2019-05-17T06:44:52.419Z,20.40
2019-05-17T06:45:42.132Z,14.77
2019-05-17T06:45:52.374Z,21.30
2019-05-17T06:46:52.157Z,20.40
2019-05-17T06:47:52.171Z,19.30
2019-05-17T06:48:11.776Z,15.20
2019-05-17T06:48:52.980Z,20.30
2019-05-17T06:49:53.434Z,20.50
2019-05-17T06:50:42.827Z,14.60
2019-05-17T06:50:52.229Z,18.90
2019-05-17T06:51:52.238Z,22.50
2019-05-17T06:52:53.269Z,19.00
2019-05-17T06:53:12.310Z,15.30
2019-05-17T06:53:52.505Z,21.60
2019-05-17T06:54:52.583Z,22.80
2019-05-17T06:55:42.527Z,15.40
2019-05-17T06:55:53.404Z,21.40
2019-05-17T06:56:52.634Z,21.90
2019-05-17T06:57:52.783Z,22.10
2019-05-17T06:58:11.931Z,16.73
2019-05-17T06:58:52.359Z,22.50
2019-05-17T06:59:52.529Z,19.70
2019-05-17T07:00:41.038Z,15.03
2019-05-17T07:00:52.460Z,21.60
2019-05-17T07:01:52.412Z,21.50
2019-05-17T07:02:52.431Z,21.90
2019-05-17T07:03:09.910Z,15.87
2019-05-17T07:03:52.447Z,20.40
2019-05-17T07:04:52.459Z,22.70
2019-05-17T07:05:40.613Z,18.60
2019-05-17T07:05:52.476Z,21.80
2019-05-17T07:06:52.495Z,22.50
2019-05-17T07:07:52.515Z,22.80
2019-05-17T07:08:10.776Z,15.80
2019-05-17T07:08:52.527Z,20.70
2019-05-17T07:09:52.641Z,22.50
2019-05-17T07:10:40.168Z,15.00
2019-05-17T07:10:52.565Z,22.60
2019-05-17T07:11:52.582Z,26.60
2019-05-17T07:12:58.584Z,22.10
2019-05-17T07:13:10.633Z,15.67
2019-05-17T07:13:52.611Z,21.10
2019-05-17T07:14:52.630Z,19.50
2019-05-17T07:15:47.245Z,16.50
2019-05-17T07:15:52.647Z,22.60
2019-05-17T07:16:52.662Z,23.00
2019-05-17T07:17:52.683Z,22.10
2019-05-17T07:18:10.552Z,15.80
2019-05-17T07:18:52.699Z,22.70
2019-05-17T07:19:52.715Z,21.40
2019-05-17T07:20:39.758Z,16.63
2019-05-17T07:20:52.733Z,21.50
2019-05-17T07:21:52.747Z,22.00
2019-05-17T07:22:52.766Z,24.70
2019-05-17T07:23:10.763Z,15.37
2019-05-17T07:23:52.787Z,25.40
2019-05-17T07:24:52.806Z,21.50
2019-05-17T07:25:39.853Z,15.10
2019-05-17T07:25:53.034Z,21.40
2019-05-17T07:26:52.833Z,23.20
2019-05-17T07:27:52.851Z,20.90
2019-05-17T07:28:10.055Z,16.83
2019-05-17T07:28:52.876Z,22.80
2019-05-17T07:29:52.887Z,21.70
2019-05-17T07:30:40.076Z,16.10
2019-05-17T07:30:52.909Z,19.90
2019-05-17T07:31:52.916Z,20.40
2019-05-17T07:32:52.941Z,21.40
2019-05-17T07:33:10.199Z,14.73
2019-05-17T07:33:53.070Z,20.30
2019-05-17T07:34:52.986Z,20.80
2019-05-17T07:35:39.716Z,16.60
2019-05-17T07:35:53.026Z,21.50
2019-05-17T07:36:53.003Z,19.70
2019-05-17T07:37:53.021Z,21.60
2019-05-17T07:38:10.722Z,15.87
2019-05-17T07:38:53.045Z,19.20
2019-05-17T07:40:01.087Z,21.70
2019-05-17T07:40:40.036Z,14.70
2019-05-17T07:40:53.070Z,22.70
2019-05-17T07:41:53.097Z,19.80
2019-05-17T07:43:06.678Z,19.70
2019-05-17T07:43:13.937Z,15.90
2019-05-17T07:43:53.132Z,18.60
2019-05-17T07:44:53.266Z,22.90
2019-05-17T07:45:40.526Z,16.50
2019-05-17T07:45:53.168Z,19.10
2019-05-17T07:46:53.178Z,18.20
2019-05-17T07:47:53.190Z,19.60
2019-05-17T07:48:09.921Z,15.67
2019-05-17T07:48:53.204Z,20.90
2019-05-17T07:49:54.654Z,20.80
2019-05-17T07:50:39.788Z,15.27
2019-05-17T07:50:53.245Z,21.70
2019-05-17T07:51:53.264Z,19.00
2019-05-17T07:52:53.285Z,21.10
2019-05-17T07:53:10.394Z,15.90
2019-05-17T07:53:53.296Z,19.70
2019-05-17T07:54:53.439Z,20.80
2019-05-17T07:55:39.974Z,15.20
2019-05-17T07:55:53.335Z,20.00
2019-05-17T07:56:53.345Z,20.20
2019-05-17T07:57:53.362Z,20.70
2019-05-17T07:58:10.066Z,15.77
2019-05-17T07:58:53.378Z,19.60
2019-05-17T07:59:53.393Z,20.10
2019-05-17T08:00:40.040Z,15.70
2019-05-17T08:00:53.418Z,18.50
2019-05-17T08:01:53.424Z,17.80
2019-05-17T08:02:53.452Z,18.60
2019-05-17T08:03:12.661Z,13.97
2019-05-17T08:03:53.475Z,21.00
2019-05-17T08:04:53.488Z,18.60
2019-05-17T08:05:40.254Z,14.53
2019-05-17T08:05:53.506Z,19.90
2019-05-17T08:06:53.527Z,19.10
2019-05-17T08:07:53.534Z,18.10
2019-05-17T08:08:09.792Z,14.10
2019-05-17T08:08:53.636Z,18.50
2019-05-17T08:09:53.566Z,19.30
2019-05-17T08:10:41.007Z,14.93
2019-05-17T08:10:53.588Z,21.80
2019-05-17T08:11:53.602Z,19.60
2019-05-17T08:12:53.628Z,18.70
2019-05-17T08:13:25.068Z,14.60
2019-05-17T08:13:53.648Z,21.80
2019-05-17T08:14:53.654Z,18.60
2019-05-17T08:15:40.026Z,13.30
2019-05-17T08:15:53.672Z,18.50
2019-05-17T08:16:53.697Z,16.50
2019-05-17T08:17:53.712Z,16.90
2019-05-17T08:18:10.875Z,14.07
2019-05-17T08:18:53.721Z,17.30
2019-05-17T08:19:53.740Z,16.20
2019-05-17T08:20:40.106Z,13.83
2019-05-17T08:20:53.763Z,18.50
2019-05-17T08:21:53.788Z,18.10
2019-05-17T08:22:53.804Z,18.10
2019-05-17T08:23:10.532Z,14.13
2019-05-17T08:23:53.818Z,17.50
2019-05-17T08:24:53.840Z,19.10
2019-05-17T08:25:51.863Z,13.47
2019-05-17T08:25:56.331Z,17.10
2019-05-17T08:26:53.976Z,18.00
2019-05-17T08:27:53.898Z,17.80
2019-05-17T08:28:10.950Z,14.03
2019-05-17T08:28:53.926Z,19.30
2019-05-17T08:29:53.911Z,17.20
2019-05-17T08:30:40.842Z,14.93
2019-05-17T08:30:53.932Z,17.30
2019-05-17T08:31:53.958Z,17.80
2019-05-17T08:32:53.962Z,16.30
2019-05-17T08:33:10.745Z,13.70
2019-05-17T08:33:53.989Z,17.10
2019-05-17T08:34:54.012Z,16.70
2019-05-17T08:35:40.286Z,12.93
2019-05-17T08:35:54.030Z,14.80
2019-05-17T08:36:54.039Z,15.90
2019-05-17T08:37:54.071Z,15.80
2019-05-17T08:38:10.288Z,11.70
2019-05-17T08:38:54.072Z,18.50
2019-05-17T08:39:54.114Z,14.60
2019-05-17T08:40:40.375Z,12.80
2019-05-17T08:40:54.102Z,16.30
2019-05-17T08:41:54.315Z,15.80
2019-05-17T08:42:54.140Z,19.20
2019-05-17T08:43:10.136Z,12.07
2019-05-17T08:43:54.169Z,15.70
2019-05-17T08:44:54.185Z,14.50
2019-05-17T08:45:40.617Z,11.33
2019-05-17T08:45:54.188Z,14.00
2019-05-17T08:46:54.208Z,13.50
2019-05-17T08:47:54.230Z,13.50
2019-05-17T08:48:09.906Z,11.93
2019-05-17T08:48:54.238Z,14.40
2019-05-17T08:49:54.261Z,17.60
2019-05-17T08:50:40.374Z,11.73
2019-05-17T08:50:54.276Z,16.00
2019-05-17T08:51:54.293Z,14.60
2019-05-17T08:52:54.309Z,16.40
2019-05-17T08:53:10.639Z,12.67
2019-05-17T08:53:54.327Z,14.30
2019-05-17T08:54:54.348Z,14.50
2019-05-17T08:55:40.844Z,11.47
2019-05-17T08:55:54.365Z,17.50
2019-05-17T08:56:54.379Z,16.00
2019-05-17T08:57:54.406Z,16.30
2019-05-17T08:58:10.488Z,11.27
2019-05-17T08:58:54.445Z,17.10
2019-05-17T08:59:54.432Z,12.80
2019-05-17T09:00:40.559Z,11.43
2019-05-17T09:00:54.449Z,13.80
2019-05-17T09:01:54.474Z,14.50
2019-05-17T09:02:54.486Z,14.80
2019-05-17T09:03:10.656Z,12.07
2019-05-17T09:03:54.504Z,13.40
2019-05-17T09:04:54.520Z,18.20
2019-05-17T09:05:41.849Z,10.83
2019-05-17T09:05:54.537Z,13.70
2019-05-17T09:06:54.553Z,14.10
2019-05-17T09:07:54.581Z,16.80
2019-05-17T09:08:10.688Z,11.33
2019-05-17T09:08:54.611Z,15.30
2019-05-17T09:09:54.607Z,13.00
2019-05-17T09:10:40.795Z,10.23
2019-05-17T09:10:54.625Z,14.40
2019-05-17T09:11:54.645Z,14.60
2019-05-17T09:12:54.661Z,13.10
2019-05-17T09:13:12.289Z,10.93